Date,TemperatureHighF,TemperatureAvgF,TemperatureLowF,DewpointHighF,DewpointAvgF,DewpointLowF,HumidityHigh,HumidityAvg,HumidityLow,PressureMaxIn,PressureMinIn,WindSpeedMaxMPH,WindSpeedAvgMPH,GustSpeedMaxMPH,PrecipitationSumIn
2013-2-1,29.9,24.9,18.7,24.0,12.1,5.0,87,59,45,30.35,29.81,14,3,24,0.00
2013-2-2,25.9,21.5,15.8,24.0,13.4,6.0,91,72,58,30.36,30.00,7,1,9,0.00
2013-2-3,34.1,27.1,19.7,29.0,23.5,18.0,94,86,64,30.00,29.80,6,1,14,0.03
2013-2-4,35.8,29.4,23.2,25.0,17.5,12.0,75,62,51,30.07,29.87,9,2,16,0.00
2013-2-5,37.4,32.6,28.7,32.0,28.6,25.0,94,85,75,29.92,29.84,2,0,3,0.00
2013-2-6,30.5,29.8,29.2,29.0,28.3,28.0,94,94,94,29.92,29.91,0,0,0,0.00
2013-2-8,40.1,37.3,32.1,38.0,32.1,24.0,93,82,69,29.92,29.75,10,3,27,0.10
2013-2-9,41.8,31.7,21.9,24.0,19.3,16.0,83,61,41,30.37,29.92,12,2,17,0.00
2013-2-10,45.5,31.0,15.3,24.0,19.0,13.0,93,65,36,30.46,30.20,6,1,10,0.00
2013-2-11,56.9,43.1,34.1,50.0,38.2,23.0,96,84,38,30.21,29.66,8,1,15,0.41
2013-2-12,55.9,45.0,29.9,36.0,30.9,27.0,88,59,43,29.97,29.81,12,2,16,0.00
2013-2-13,43.2,33.3,24.2,34.0,29.1,22.0,94,85,66,29.94,29.65,2,0,4,0.04
2013-2-14,49.7,37.4,28.7,34.0,30.7,26.0,96,79,53,29.99,29.75,4,0,8,0.15
2013-2-15,56.1,38.5,26.6,39.0,32.3,25.0,94,81,48,30.01,29.89,6,1,12,0.25
2013-2-16,38.0,33.8,29.4,33.0,28.1,20.0,96,81,61,29.99,29.83,2,0,10,0.01
2013-2-17,30.8,26.5,23.0,20.0,14.1,9.0,70,60,48,30.19,29.83,13,3,21,0.00
2013-2-18,42.2,29.4,19.1,18.0,13.1,7.0,67,52,37,30.36,30.12,5,1,11,0.00
2013-2-19,45.3,36.2,24.4,40.0,29.3,18.0,91,77,52,30.11,29.66,15,2,15,0.18
2013-2-20,36.6,29.8,25.4,24.0,16.2,11.0,64,57,51,30.14,29.83,12,4,19,0.00
2013-2-21,39.2,28.7,23.5,21.0,16.2,12.0,83,60,48,30.32,30.11,8,2,13,0.00
2013-2-22,33.3,29.8,23.2,29.0,23.8,19.0,87,78,65,30.37,30.20,5,1,8,0.01
2013-2-23,46.5,37.4,31.7,43.0,35.3,29.0,100,92,86,30.19,29.81,0,0,2,0.01
2013-2-24,48.1,39.4,30.4,39.0,31.0,21.0,97,74,50,30.10,29.77,10,1,17,0.00
2013-2-25,50.5,35.3,22.8,30.0,24.6,19.0,89,67,44,30.20,30.09,5,0,7,0.00
2013-2-26,40.7,33.9,24.3,40.0,31.4,22.0,96,90,71,30.20,29.64,2,0,9,0.98
2013-2-27,54.6,44.6,37.8,43.0,37.6,35.0,97,79,56,29.67,29.53,8,2,14,0.10
2013-2-28,44.1,41.0,34.5,37.0,32.0,29.0,83,71,57,29.70,29.62,8,2,14,0.00